sensor_id;sensor_type;location;lat;lon;timestamp;temperature;humidity
32107;DHT22;18622;51.998;10.440;2022-09-29T02:16:34;8.20;99.90
32107;DHT22;18622;51.998;10.440;2022-09-29T02:19:18;8.30;99.90
32107;DHT22;18622;51.998;10.440;2022-09-29T02:21:47;8.30;99.90
32107;DHT22;18622;51.998;10.440;2022-09-29T02:24:17;8.30;99.90
32107;DHT22;18622;51.998;10.440;2022-09-29T02:26:45;8.40;99.90
32107;DHT22;18622;51.998;10.440;2022-09-29T02:29:13;8.40;99.90
32107;DHT22;18622;51.998;10.440;2022-09-29T02:31:42;8.40;99.90
32107;DHT22;18622;51.998;10.440;2022-09-29T02:34:12;8.40;99.90
32107;DHT22;18622;51.998;10.440;2022-09-29T02:36:46;8.40;99.90
32107;DHT22;18622;51.998;10.440;2022-09-29T02:39:22;8.40;99.90
32107;DHT22;18622;51.998;10.440;2022-09-29T02:48:07;8.40;99.90
32107;DHT22;18622;51.998;10.440;2022-09-29T02:53:31;8.40;99.90
32107;DHT22;18622;51.998;10.440;2022-09-29T02:58:50;8.40;99.90
32107;DHT22;18622;51.998;10.440;2022-09-29T03:30:43;8.50;99.90
32107;DHT22;18622;51.998;10.440;2022-09-29T03:33:11;8.40;99.90
32107;DHT22;18622;51.998;10.440;2022-09-29T03:35:38;8.50;99.90
32107;DHT22;18622;51.998;10.440;2022-09-29T03:38:07;8.50;99.90
32107;DHT22;18622;51.998;10.440;2022-09-29T03:40:35;8.50;99.90
32107;DHT22;18622;51.998;10.440;2022-09-29T03:43:03;8.50;99.90
32107;DHT22;18622;51.998;10.440;2022-09-29T03:45:31;8.50;99.90
32107;DHT22;18622;51.998;10.440;2022-09-29T03:47:58;8.50;99.90
32107;DHT22;18622;51.998;10.440;2022-09-29T03:50:26;8.50;99.90
32107;DHT22;18622;51.998;10.440;2022-09-29T03:52:54;8.50;99.90
32107;DHT22;18622;51.998;10.440;2022-09-29T03:55:22;8.50;99.90
32107;DHT22;18622;51.998;10.440;2022-09-29T03:57:50;8.50;99.90
32107;DHT22;18622;51.998;10.440;2022-09-29T04:00:17;8.50;99.90
32107;DHT22;18622;51.998;10.440;2022-09-29T04:02:45;8.40;99.90
32107;DHT22;18622;51.998;10.440;2022-09-29T04:05:13;8.40;99.90
32107;DHT22;18622;51.998;10.440;2022-09-29T04:07:41;8.30;99.90
32107;DHT22;18622;51.998;10.440;2022-09-29T04:10:09;8.30;99.90
32107;DHT22;18622;51.998;10.440;2022-09-29T04:12:37;8.20;99.90
32107;DHT22;18622;51.998;10.440;2022-09-29T04:15:05;8.20;99.90
32107;DHT22;18622;51.998;10.440;2022-09-29T04:17:33;8.20;99.90
32107;DHT22;18622;51.998;10.440;2022-09-29T04:20:01;8.10;99.90
32107;DHT22;18622;51.998;10.440;2022-09-29T04:22:28;8.10;99.90
32107;DHT22;18622;51.998;10.440;2022-09-29T04:24:56;8.10;99.90
32107;DHT22;18622;51.998;10.440;2022-09-29T04:27:24;8.10;99.90
32107;DHT22;18622;51.998;10.440;2022-09-29T04:29:52;8.10;99.90
32107;DHT22;18622;51.998;10.440;2022-09-29T04:32:20;8.20;99.90
32107;DHT22;18622;51.998;10.440;2022-09-29T04:34:47;8.10;99.90
32107;DHT22;18622;51.998;10.440;2022-09-29T04:37:15;8.10;99.90
32107;DHT22;18622;51.998;10.440;2022-09-29T04:39:43;8.20;99.90
32107;DHT22;18622;51.998;10.440;2022-09-29T04:42:11;8.10;99.90
32107;DHT22;18622;51.998;10.440;2022-09-29T04:44:39;8.10;99.90
32107;DHT22;18622;51.998;10.440;2022-09-29T04:47:06;8.10;99.90
32107;DHT22;18622;51.998;10.440;2022-09-29T04:49:34;8.10;99.90
32107;DHT22;18622;51.998;10.440;2022-09-29T04:52:02;8.10;99.90
32107;DHT22;18622;51.998;10.440;2022-09-29T04:54:31;8.10;99.90
32107;DHT22;18622;51.998;10.440;2022-09-29T04:56:59;8.10;99.90
32107;DHT22;18622;51.998;10.440;2022-09-29T04:59:28;8.10;99.90
32107;DHT22;18622;51.998;10.440;2022-09-29T05:01:55;8.10;99.90
32107;DHT22;18622;51.998;10.440;2022-09-29T05:04:23;8.10;99.90
32107;DHT22;18622;51.998;10.440;2022-09-29T05:06:51;8.10;99.90
32107;DHT22;18622;51.998;10.440;2022-09-29T05:09:19;8.00;99.90
32107;DHT22;18622;51.998;10.440;2022-09-29T05:11:47;8.00;99.90
32107;DHT22;18622;51.998;10.440;2022-09-29T05:14:14;8.00;99.90
32107;DHT22;18622;51.998;10.440;2022-09-29T05:16:42;8.00;99.90
32107;DHT22;18622;51.998;10.440;2022-09-29T05:19:10;8.00;99.90
32107;DHT22;18622;51.998;10.440;2022-09-29T05:21:38;8.00;99.90
32107;DHT22;18622;51.998;10.440;2022-09-29T05:24:06;8.10;99.90
32107;DHT22;18622;51.998;10.440;2022-09-29T05:26:34;8.10;99.90
32107;DHT22;18622;51.998;10.440;2022-09-29T05:29:01;8.20;99.90
32107;DHT22;18622;51.998;10.440;2022-09-29T09:04:54;16.80;93.90
32107;DHT22;18622;51.998;10.440;2022-09-29T09:07:44;17.30;92.60
32107;DHT22;18622;51.998;10.440;2022-09-29T09:10:15;17.80;91.40
32107;DHT22;18622;51.998;10.440;2022-09-29T09:18:23;18.40;82.90
32107;DHT22;18622;51.998;10.440;2022-09-29T09:20:51;18.40;81.40
32107;DHT22;18622;51.998;10.440;2022-09-29T09:23:32;18.60;79.40
32107;DHT22;18622;51.998;10.440;2022-09-29T09:25:58;18.60;76.10
32107;DHT22;18622;51.998;10.440;2022-09-29T09:28:52;18.50;73.60
32107;DHT22;18622;51.998;10.440;2022-09-29T09:31:35;18.60;73.10
32107;DHT22;18622;51.998;10.440;2022-09-29T09:36:40;19.10;71.90
32107;DHT22;18622;51.998;10.440;2022-09-29T09:39:17;19.50;73.20
32107;DHT22;18622;51.998;10.440;2022-09-29T09:41:44;20.00;73.00
32107;DHT22;18622;51.998;10.440;2022-09-29T09:44:18;20.50;68.40
32107;DHT22;18622;51.998;10.440;2022-09-29T09:46:55;20.80;66.70
32107;DHT22;18622;51.998;10.440;2022-09-29T09:49:33;21.20;67.20
32107;DHT22;18622;51.998;10.440;2022-09-29T09:52:21;21.60;65.60
32107;DHT22;18622;51.998;10.440;2022-09-29T09:54:58;21.90;62.50
32107;DHT22;18622;51.998;10.440;2022-09-29T10:00:41;22.60;60.20
32107;DHT22;18622;51.998;10.440;2022-09-29T10:03:05;23.00;57.50
32107;DHT22;18622;51.998;10.440;2022-09-29T10:05:36;23.30;58.40
32107;DHT22;18622;51.998;10.440;2022-09-29T10:08:11;23.50;54.80
32107;DHT22;18622;51.998;10.440;2022-09-29T10:10:39;23.50;53.90
32107;DHT22;18622;51.998;10.440;2022-09-29T10:13:12;23.50;53.30
32107;DHT22;18622;51.998;10.440;2022-09-29T10:16:11;23.70;55.20
32107;DHT22;18622;51.998;10.440;2022-09-29T10:18:49;24.10;53.20
32107;DHT22;18622;51.998;10.440;2022-09-29T10:24:02;25.30;49.20
32107;DHT22;18622;51.998;10.440;2022-09-29T10:26:35;25.50;48.80
32107;DHT22;18622;51.998;10.440;2022-09-29T10:29:24;25.60;48.80
32107;DHT22;18622;51.998;10.440;2022-09-29T10:31:36;25.10;47.40
32107;DHT22;18622;51.998;10.440;2022-09-29T10:34:14;24.90;49.40
32107;DHT22;18622;51.998;10.440;2022-09-29T10:36:53;24.70;48.70
32107;DHT22;18622;51.998;10.440;2022-09-29T10:39:44;24.60;48.10
32107;DHT22;18622;51.998;10.440;2022-09-29T10:42:25;24.20;48.40
32107;DHT22;18622;51.998;10.440;2022-09-29T10:45:07;24.00;49.50
32107;DHT22;18622;51.998;10.440;2022-09-29T10:47:30;24.40;48.00
32107;DHT22;18622;51.998;10.440;2022-09-29T10:50:23;24.80;46.90
32107;DHT22;18622;51.998;10.440;2022-09-29T10:52:53;25.20;46.80
32107;DHT22;18622;51.998;10.440;2022-09-29T10:55:28;25.50;44.60
32107;DHT22;18622;51.998;10.440;2022-09-29T10:57:58;25.60;45.20
32107;DHT22;18622;51.998;10.440;2022-09-29T15:02:32;21.10;46.20
32107;DHT22;18622;51.998;10.440;2022-09-29T15:05:22;20.70;47.80
32107;DHT22;18622;51.998;10.440;2022-09-29T15:07:41;20.40;48.40
32107;DHT22;18622;51.998;10.440;2022-09-29T15:10:27;20.10;49.90
32107;DHT22;18622;51.998;10.440;2022-09-29T15:15:47;20.50;49.50
32107;DHT22;18622;51.998;10.440;2022-09-29T15:21:03;21.70;47.80
32107;DHT22;18622;51.998;10.440;2022-09-29T15:26:34;21.00;49.20
32107;DHT22;18622;51.998;10.440;2022-09-29T15:29:04;20.60;50.20
32107;DHT22;18622;51.998;10.440;2022-09-29T15:31:33;20.30;50.60
32107;DHT22;18622;51.998;10.440;2022-09-29T15:34:01;20.00;51.00
32107;DHT22;18622;51.998;10.440;2022-09-29T15:36:38;19.60;51.50
32107;DHT22;18622;51.998;10.440;2022-09-29T15:42:18;18.90;52.90
32107;DHT22;18622;51.998;10.440;2022-09-29T15:44:59;18.70;54.20
32107;DHT22;18622;51.998;10.440;2022-09-29T15:47:40;19.20;53.80
32107;DHT22;18622;51.998;10.440;2022-09-29T15:50:16;19.90;51.90
32107;DHT22;18622;51.998;10.440;2022-09-29T15:52:45;19.80;52.10
32107;DHT22;18622;51.998;10.440;2022-09-29T15:55:21;19.10;53.70
32107;DHT22;18622;51.998;10.440;2022-09-29T15:57:46;18.50;55.40
32107;DHT22;18622;51.998;10.440;2022-09-29T16:03:15;17.50;58.30
32107;DHT22;18622;51.998;10.440;2022-09-29T16:05:53;17.10;58.80
32107;DHT22;18622;51.998;10.440;2022-09-29T16:08:20;16.70;59.90
32107;DHT22;18622;51.998;10.440;2022-09-29T16:10:56;16.40;60.70
32107;DHT22;18622;51.998;10.440;2022-09-29T16:13:26;16.10;61.70
32107;DHT22;18622;51.998;10.440;2022-09-29T16:16:03;15.80;62.50
32107;DHT22;18622;51.998;10.440;2022-09-29T16:18:50;15.50;63.60
32107;DHT22;18622;51.998;10.440;2022-09-29T16:21:23;15.20;64.60
32107;DHT22;18622;51.998;10.440;2022-09-29T16:26:34;14.70;66.20
32107;DHT22;18622;51.998;10.440;2022-09-29T16:31:42;14.40;68.40
32107;DHT22;18622;51.998;10.440;2022-09-29T16:36:52;14.20;69.60
32107;DHT22;18622;51.998;10.440;2022-09-29T16:39:23;14.00;69.80
32107;DHT22;18622;51.998;10.440;2022-09-29T16:41:56;14.00;71.20
32107;DHT22;18622;51.998;10.440;2022-09-29T16:44:33;13.80;71.60
32107;DHT22;18622;51.998;10.440;2022-09-29T16:47:24;13.70;72.10
32107;DHT22;18622;51.998;10.440;2022-09-29T16:49:55;13.60;73.40
32107;DHT22;18622;51.998;10.440;2022-09-29T16:52:25;13.50;74.00
32107;DHT22;18622;51.998;10.440;2022-09-29T16:55:06;13.40;74.70
32107;DHT22;18622;51.998;10.440;2022-09-29T16:57:34;13.20;75.50
32107;DHT22;18622;51.998;10.440;2022-09-29T17:00:10;13.10;76.40
32107;DHT22;18622;51.998;10.440;2022-09-29T17:02:38;13.00;77.60
32107;DHT22;18622;51.998;10.440;2022-09-29T17:05:06;12.80;79.10
32107;DHT22;18622;51.998;10.440;2022-09-29T17:07:39;12.70;80.70
32107;DHT22;18622;51.998;10.440;2022-09-29T17:10:19;12.60;82.10
32107;DHT22;18622;51.998;10.440;2022-09-29T17:12:47;12.50;84.00
32107;DHT22;18622;51.998;10.440;2022-09-29T17:15:15;12.40;86.50
32107;DHT22;18622;51.998;10.440;2022-09-29T17:17:48;12.40;88.30
32107;DHT22;18622;51.998;10.440;2022-09-29T17:20:21;12.30;90.20
32107;DHT22;18622;51.998;10.440;2022-09-29T17:22:55;12.20;91.10
32107;DHT22;18622;51.998;10.440;2022-09-29T17:25:24;12.20;92.00
32107;DHT22;18622;51.998;10.440;2022-09-29T17:27:52;12.20;92.60
32107;DHT22;18622;51.998;10.440;2022-09-29T17:30:39;12.20;93.10
32107;DHT22;18622;51.998;10.440;2022-09-29T17:33:09;12.20;93.50
32107;DHT22;18622;51.998;10.440;2022-09-29T17:35:40;12.20;94.20
32107;DHT22;18622;51.998;10.440;2022-09-29T17:38:07;12.10;94.60
32107;DHT22;18622;51.998;10.440;2022-09-29T17:40:48;12.20;94.40
32107;DHT22;18622;51.998;10.440;2022-09-29T17:43:16;12.20;94.50
32107;DHT22;18622;51.998;10.440;2022-09-29T17:45:45;12.20;94.60
32107;DHT22;18622;51.998;10.440;2022-09-29T17:48:13;12.20;94.80
32107;DHT22;18622;51.998;10.440;2022-09-29T17:50:46;12.20;95.00
32107;DHT22;18622;51.998;10.440;2022-09-29T17:53:14;12.20;95.20
32107;DHT22;18622;51.998;10.440;2022-09-29T17:55:45;12.20;95.50
32107;DHT22;18622;51.998;10.440;2022-09-29T17:58:16;12.10;95.30
32107;DHT22;18622;51.998;10.440;2022-09-29T18:00:45;12.00;95.50
32107;DHT22;18622;51.998;10.440;2022-09-29T18:03:16;11.90;95.70
32107;DHT22;18622;51.998;10.440;2022-09-29T18:05:48;11.80;96.30
32107;DHT22;18622;51.998;10.440;2022-09-29T18:08:19;11.70;96.70
32107;DHT22;18622;51.998;10.440;2022-09-29T18:10:53;11.60;96.40
32107;DHT22;18622;51.998;10.440;2022-09-29T18:13:23;11.50;96.50
32107;DHT22;18622;51.998;10.440;2022-09-29T18:15:58;11.40;96.90
32107;DHT22;18622;51.998;10.440;2022-09-29T18:18:23;11.30;97.30
32107;DHT22;18622;51.998;10.440;2022-09-29T18:20:50;11.10;97.70
32107;DHT22;18622;51.998;10.440;2022-09-29T18:23:19;11.00;97.90
32107;DHT22;18622;51.998;10.440;2022-09-29T18:25:49;10.90;98.30
32107;DHT22;18622;51.998;10.440;2022-09-29T18:28:18;10.80;98.50
32107;DHT22;18622;51.998;10.440;2022-09-29T18:30:48;10.70;99.00
32107;DHT22;18622;51.998;10.440;2022-09-29T18:33:18;10.60;99.80
32107;DHT22;18622;51.998;10.440;2022-09-29T18:35:51;10.50;99.90
32107;DHT22;18622;51.998;10.440;2022-09-29T18:38:19;10.50;99.90
32107;DHT22;18622;51.998;10.440;2022-09-29T18:40:47;10.40;99.90
32107;DHT22;18622;51.998;10.440;2022-09-29T18:43:16;10.30;99.90
32107;DHT22;18622;51.998;10.440;2022-09-29T18:45:44;10.20;99.90
32107;DHT22;18622;51.998;10.440;2022-09-29T18:48:13;10.20;99.90
32107;DHT22;18622;51.998;10.440;2022-09-29T18:50:46;10.10;99.90
32107;DHT22;18622;51.998;10.440;2022-09-29T18:53:16;10.10;99.90
32107;DHT22;18622;51.998;10.440;2022-09-29T18:55:45;10.10;99.90
32107;DHT22;18622;51.998;10.440;2022-09-29T18:58:17;10.10;99.90
32107;DHT22;18622;51.998;10.440;2022-09-29T19:00:47;10.10;99.90
32107;DHT22;18622;51.998;10.440;2022-09-29T19:03:16;10.10;99.90
32107;DHT22;18622;51.998;10.440;2022-09-29T19:05:45;10.10;99.90
32107;DHT22;18622;51.998;10.440;2022-09-29T19:08:14;10.10;99.90
32107;DHT22;18622;51.998;10.440;2022-09-29T19:10:54;10.00;99.90
32107;DHT22;18622;51.998;10.440;2022-09-29T19:13:24;10.00;99.90
32107;DHT22;18622;51.998;10.440;2022-09-29T19:15:56;10.00;99.90
32107;DHT22;18622;51.998;10.440;2022-09-29T19:18:24;9.90;99.90
32107;DHT22;18622;51.998;10.440;2022-09-29T19:20:55;9.90;99.90
32107;DHT22;18622;51.998;10.440;2022-09-29T19:23:25;9.80;99.90
32107;DHT22;18622;51.998;10.440;2022-09-29T19:25:53;9.80;99.90
32107;DHT22;18622;51.998;10.440;2022-09-29T19:28:23;9.70;99.90
32107;DHT22;18622;51.998;10.440;2022-09-29T19:30:53;9.70;99.90
32107;DHT22;18622;51.998;10.440;2022-09-29T19:33:21;9.60;99.90
32107;DHT22;18622;51.998;10.440;2022-09-29T19:35:52;9.50;99.90
32107;DHT22;18622;51.998;10.440;2022-09-29T19:38:23;9.40;99.90
32107;DHT22;18622;51.998;10.440;2022-09-29T19:40:50;9.40;99.90
32107;DHT22;18622;51.998;10.440;2022-09-29T19:43:18;9.30;99.90
32107;DHT22;18622;51.998;10.440;2022-09-29T19:45:48;9.30;99.90
32107;DHT22;18622;51.998;10.440;2022-09-29T19:48:19;9.20;99.90
32107;DHT22;18622;51.998;10.440;2022-09-29T19:50:54;9.10;99.90
32107;DHT22;18622;51.998;10.440;2022-09-29T19:53:35;9.10;99.90
32107;DHT22;18622;51.998;10.440;2022-09-29T19:56:08;9.00;99.90
32107;DHT22;18622;51.998;10.440;2022-09-29T19:58:36;8.80;99.90
32107;DHT22;18622;51.998;10.440;2022-09-29T20:01:05;8.80;99.90
32107;DHT22;18622;51.998;10.440;2022-09-29T20:03:33;8.80;99.90
32107;DHT22;18622;51.998;10.440;2022-09-29T20:06:03;8.70;99.90
32107;DHT22;18622;51.998;10.440;2022-09-29T20:08:33;8.70;99.90
32107;DHT22;18622;51.998;10.440;2022-09-29T20:11:09;8.60;99.90
32107;DHT22;18622;51.998;10.440;2022-09-29T20:13:37;8.60;99.90
32107;DHT22;18622;51.998;10.440;2022-09-29T20:16:05;8.50;99.90
32107;DHT22;18622;51.998;10.440;2022-09-29T20:18:34;8.50;99.90
32107;DHT22;18622;51.998;10.440;2022-09-29T20:21:09;8.50;99.90
32107;DHT22;18622;51.998;10.440;2022-09-29T20:23:38;8.40;99.90
32107;DHT22;18622;51.998;10.440;2022-09-29T20:26:06;8.40;99.90
32107;DHT22;18622;51.998;10.440;2022-09-29T20:28:37;8.40;99.90
32107;DHT22;18622;51.998;10.440;2022-09-29T20:31:06;8.40;99.90
32107;DHT22;18622;51.998;10.440;2022-09-29T20:33:34;8.40;99.90
32107;DHT22;18622;51.998;10.440;2022-09-29T20:36:03;8.30;99.90
32107;DHT22;18622;51.998;10.440;2022-09-29T20:38:32;8.30;99.90
32107;DHT22;18622;51.998;10.440;2022-09-29T20:41:02;8.30;99.90
32107;DHT22;18622;51.998;10.440;2022-09-29T20:43:30;8.30;99.90
32107;DHT22;18622;51.998;10.440;2022-09-29T20:46:03;8.30;99.90
32107;DHT22;18622;51.998;10.440;2022-09-29T20:48:32;8.30;99.90
32107;DHT22;18622;51.998;10.440;2022-09-29T20:51:00;8.30;99.90
32107;DHT22;18622;51.998;10.440;2022-09-29T20:53:31;8.30;99.90
32107;DHT22;18622;51.998;10.440;2022-09-29T20:56:02;8.30;99.90
32107;DHT22;18622;51.998;10.440;2022-09-29T20:58:30;8.40;99.90
